createdAt,value
2019-05-29T00:01:04.440Z,13.67
2019-05-29T00:02:10.083Z,13.66
2019-05-29T00:03:36.168Z,13.64
2019-05-29T00:05:00.556Z,13.62
2019-05-29T00:06:06.265Z,13.62
2019-05-29T00:07:51.361Z,13.63
2019-05-29T00:08:56.916Z,13.63
2019-05-29T00:11:26.814Z,13.60
2019-05-29T00:12:32.030Z,13.58
2019-05-29T00:13:37.545Z,13.58
2019-05-29T00:14:42.493Z,13.57
2019-05-29T00:15:48.003Z,13.56
2019-05-29T00:18:35.985Z,13.54
2019-05-29T00:19:40.965Z,13.50
2019-05-29T00:20:46.885Z,13.48
2019-05-29T00:27:15.706Z,13.42
2019-05-29T00:28:21.811Z,13.39
2019-05-29T00:32:15.435Z,13.37
2019-05-29T00:33:21.238Z,13.35
2019-05-29T00:34:26.192Z,13.35
2019-05-29T00:35:50.186Z,13.32
2019-05-29T00:37:14.702Z,13.33
2019-05-29T00:38:20.205Z,13.32
2019-05-29T00:39:25.166Z,13.31
2019-05-29T00:40:49.233Z,13.31
2019-05-29T00:41:55.788Z,13.30
2019-05-29T00:43:01.619Z,13.30
2019-05-29T00:44:33.919Z,13.30
2019-05-29T00:46:11.392Z,13.30
2019-05-29T00:49:45.371Z,13.21
2019-05-29T00:51:10.945Z,13.16
2019-05-29T00:54:20.619Z,13.12
2019-05-29T00:55:45.342Z,13.08
2019-05-29T00:56:50.313Z,13.06
2019-05-29T00:58:15.027Z,13.05
2019-05-29T00:59:20.420Z,13.03
2019-05-29T01:00:45.141Z,13.03
2019-05-29T01:06:28.153Z,12.97
2019-05-29T01:07:33.117Z,12.95
2019-05-29T01:08:38.612Z,12.95
2019-05-29T01:10:02.770Z,12.95
2019-05-29T01:11:26.755Z,12.95
2019-05-29T01:14:15.173Z,12.92
2019-05-29T01:17:24.534Z,12.89
2019-05-29T01:18:48.572Z,12.88
2019-05-29T01:20:13.947Z,12.88
2019-05-29T01:23:42.710Z,12.83
2019-05-29T01:25:07.546Z,12.80
2019-05-29T01:26:12.767Z,12.76
2019-05-29T01:27:18.821Z,12.73
2019-05-29T01:28:44.403Z,12.72
2019-05-29T01:29:49.920Z,12.70
2019-05-29T01:31:15.118Z,12.70
2019-05-29T01:32:40.952Z,12.69
2019-05-29T01:33:47.361Z,12.66
2019-05-29T01:34:52.919Z,12.63
2019-05-29T01:35:57.832Z,12.64
2019-05-29T01:37:22.353Z,12.65
2019-05-29T01:38:46.455Z,12.65
2019-05-29T01:39:51.974Z,12.63
2019-05-29T01:40:56.885Z,12.63
2019-05-29T01:42:02.403Z,12.63
2019-05-29T01:46:59.796Z,12.65
2019-05-29T01:48:23.946Z,12.65
2019-05-29T01:49:48.707Z,12.63
2019-05-29T01:50:53.944Z,12.62
2019-05-29T01:52:19.676Z,12.61
2019-05-29T01:53:45.340Z,12.61
2019-05-29T01:54:50.902Z,12.59
2019-05-29T01:56:15.586Z,12.59
2019-05-29T01:57:39.693Z,12.58
2019-05-29T01:59:04.409Z,12.58
2019-05-29T02:00:49.031Z,12.57
2019-05-29T02:03:40.618Z,12.52
2019-05-29T02:04:46.190Z,12.49
2019-05-29T02:06:10.315Z,12.47
2019-05-29T02:07:34.318Z,12.46
2019-05-29T02:08:58.458Z,12.46
2019-05-29T02:11:47.944Z,12.45
2019-05-29T02:14:18.461Z,12.46
2019-05-29T02:16:02.908Z,12.46
2019-05-29T02:17:27.995Z,12.45
2019-05-29T02:20:23.620Z,12.42
2019-05-29T02:21:47.940Z,12.41
2019-05-29T02:23:12.003Z,12.38
2019-05-29T02:26:00.153Z,12.37
2019-05-29T02:27:25.579Z,12.38
2019-05-29T02:28:50.884Z,12.38
2019-05-29T02:29:56.381Z,12.36
2019-05-29T02:31:01.363Z,12.34
2019-05-29T02:32:25.696Z,12.33
2019-05-29T02:33:30.583Z,12.34
2019-05-29T02:34:36.216Z,12.32
2019-05-29T02:37:26.113Z,12.34
2019-05-29T02:39:09.937Z,12.33
2019-05-29T02:40:34.664Z,12.31
2019-05-29T02:41:58.247Z,12.29
2019-05-29T02:43:03.176Z,12.28
2019-05-29T02:44:27.676Z,12.26
2019-05-29T02:45:55.009Z,12.25
2019-05-29T02:50:33.495Z,12.21
2019-05-29T02:52:18.093Z,12.20
2019-05-29T02:53:42.534Z,12.18
2019-05-29T02:55:07.266Z,12.18
2019-05-29T02:56:31.388Z,12.16
2019-05-29T02:57:55.353Z,12.16
2019-05-29T02:59:21.088Z,12.15
2019-05-29T03:02:54.227Z,12.12
2019-05-29T03:04:18.383Z,12.10
2019-05-29T03:05:24.036Z,12.08
2019-05-29T03:06:48.173Z,12.03
2019-05-29T03:08:34.378Z,12.01
2019-05-29T03:10:18.042Z,12.01
2019-05-29T03:11:42.768Z,12.00
2019-05-29T03:13:06.886Z,11.98
2019-05-29T03:14:31.793Z,11.97
2019-05-29T03:16:09.557Z,11.96
2019-05-29T03:17:23.805Z,11.92
2019-05-29T03:20:34.433Z,11.89
2019-05-29T03:23:24.254Z,11.89
2019-05-29T03:24:50.083Z,11.88
2019-05-29T03:25:55.071Z,11.89
2019-05-29T03:27:00.585Z,11.87
2019-05-29T03:31:41.926Z,11.86
2019-05-29T03:32:59.568Z,11.84
2019-05-29T03:36:37.524Z,11.84
2019-05-29T03:38:14.510Z,11.85
2019-05-29T03:39:19.490Z,11.85
2019-05-29T03:40:26.518Z,11.84
2019-05-29T03:42:10.301Z,11.83
2019-05-29T03:44:40.115Z,11.83
2019-05-29T03:45:45.616Z,11.83
2019-05-29T03:46:50.542Z,11.82
2019-05-29T03:47:56.117Z,11.82
2019-05-29T03:49:01.078Z,11.82
2019-05-29T03:52:15.722Z,11.83
2019-05-29T03:53:21.257Z,11.82
2019-05-29T03:54:27.050Z,11.80
2019-05-29T03:55:52.880Z,11.80
2019-05-29T03:56:57.847Z,11.80
2019-05-29T03:58:03.653Z,11.79
2019-05-29T03:59:08.613Z,11.79
2019-05-29T04:00:53.487Z,11.80
2019-05-29T04:02:17.614Z,11.81
2019-05-29T04:03:23.175Z,11.81
2019-05-29T04:04:29.035Z,11.82
2019-05-29T04:05:55.097Z,11.84
2019-05-29T04:07:00.295Z,11.83
2019-05-29T04:09:31.294Z,11.85
2019-05-29T04:11:15.464Z,11.84
2019-05-29T04:12:40.221Z,11.86
2019-05-29T04:13:45.274Z,11.87
2019-05-29T04:15:31.504Z,11.88
2019-05-29T04:17:35.625Z,11.87
2019-05-29T04:19:20.300Z,11.86
2019-05-29T04:20:27.512Z,11.86
2019-05-29T04:22:34.250Z,11.84
2019-05-29T04:24:38.586Z,11.84
2019-05-29T04:26:23.174Z,11.84
2019-05-29T04:28:07.848Z,11.85
2019-05-29T04:29:52.435Z,11.86
2019-05-29T04:34:25.313Z,11.86
2019-05-29T04:35:30.567Z,11.86
2019-05-29T04:36:36.916Z,11.86
2019-05-29T04:38:02.555Z,11.86
2019-05-29T04:39:47.132Z,11.87
2019-05-29T04:40:52.045Z,11.89
2019-05-29T04:42:16.053Z,11.91
2019-05-29T04:43:20.984Z,11.92
2019-05-29T04:44:44.980Z,11.93
2019-05-29T04:46:09.374Z,11.94
2019-05-29T04:47:14.920Z,11.95
2019-05-29T04:48:40.467Z,11.94
2019-05-29T04:50:45.014Z,11.95
2019-05-29T04:52:09.167Z,11.96
2019-05-29T04:53:33.638Z,11.95
2019-05-29T04:54:59.486Z,11.95
2019-05-29T04:56:24.177Z,11.93
2019-05-29T04:57:29.322Z,11.94
2019-05-29T04:58:55.788Z,11.94
2019-05-29T05:00:00.830Z,11.96
2019-05-29T05:02:31.101Z,12.00
2019-05-29T05:03:57.455Z,12.01
2019-05-29T05:05:02.560Z,12.03
2019-05-29T05:06:08.161Z,12.05
2019-05-29T05:07:33.193Z,12.09
2019-05-29T05:10:42.397Z,12.15
2019-05-29T05:11:48.081Z,12.16
2019-05-29T05:13:12.290Z,12.21
2019-05-29T05:14:37.803Z,12.25
2019-05-29T05:18:06.680Z,12.49
2019-05-29T05:20:36.463Z,12.83
2019-05-29T05:23:26.906Z,13.18
2019-05-29T05:24:51.088Z,13.35
2019-05-29T05:26:15.108Z,13.46
2019-05-29T05:27:21.783Z,13.59
2019-05-29T05:28:27.427Z,13.72
2019-05-29T05:29:51.575Z,13.85
2019-05-29T05:30:57.278Z,13.96
2019-05-29T05:32:02.449Z,14.09
2019-05-29T05:33:27.143Z,14.18
2019-05-29T05:34:32.665Z,14.24
2019-05-29T05:37:02.766Z,14.42
2019-05-29T05:38:27.071Z,14.55
2019-05-29T05:39:51.301Z,14.65
2019-05-29T05:41:16.071Z,14.75
2019-05-29T05:42:21.036Z,14.87
2019-05-29T05:43:45.044Z,14.96
2019-05-29T05:44:50.017Z,15.02
2019-05-29T05:45:55.607Z,15.10
2019-05-29T05:47:00.682Z,15.18
2019-05-29T05:48:06.628Z,15.24
2019-05-29T05:49:31.298Z,15.33
2019-05-29T05:51:16.171Z,15.40
2019-05-29T05:52:41.641Z,15.50
2019-05-29T05:54:07.454Z,15.57
2019-05-29T05:55:52.049Z,15.64
2019-05-29T05:57:16.460Z,15.70
2019-05-29T05:58:21.984Z,15.78
2019-05-29T05:59:46.122Z,15.86
2019-05-29T06:01:31.729Z,15.92
2019-05-29T06:02:56.817Z,16.00
2019-05-29T06:04:02.346Z,16.07
2019-05-29T06:05:46.977Z,16.08
2019-05-29T06:07:32.291Z,16.13
2019-05-29T06:10:01.781Z,16.25
2019-05-29T06:11:25.914Z,16.23
2019-05-29T06:12:32.260Z,16.20
2019-05-29T06:14:16.791Z,16.21
2019-05-29T06:15:42.835Z,16.22
2019-05-29T06:17:26.987Z,16.25
2019-05-29T06:20:56.384Z,16.36
2019-05-29T06:22:01.455Z,16.44
2019-05-29T06:23:25.808Z,16.51
2019-05-29T06:24:31.196Z,16.54
2019-05-29T06:25:38.628Z,16.55
2019-05-29T06:27:22.067Z,16.59
2019-05-29T06:28:27.904Z,16.61
2019-05-29T06:29:52.040Z,16.60
2019-05-29T06:30:57.636Z,16.64
2019-05-29T06:32:02.981Z,16.72
2019-05-29T06:33:27.789Z,16.77
2019-05-29T06:34:33.512Z,16.84
2019-05-29T06:37:43.779Z,16.97
2019-05-29T06:39:09.278Z,17.00
2019-05-29T06:40:53.898Z,17.05
2019-05-29T06:42:18.127Z,17.07
2019-05-29T06:44:03.244Z,17.08
2019-05-29T06:45:47.843Z,17.09
2019-05-29T06:47:31.364Z,17.09
2019-05-29T06:48:49.322Z,17.12
2019-05-29T06:50:03.147Z,17.12
2019-05-29T06:51:27.144Z,17.08
2019-05-29T06:52:51.637Z,17.02
2019-05-29T06:56:01.865Z,16.91
2019-05-29T06:57:45.622Z,16.94
2019-05-29T06:58:50.746Z,16.98
2019-05-29T06:59:56.474Z,17.01
2019-05-29T07:01:20.536Z,17.03
2019-05-29T07:02:44.951Z,17.07
2019-05-29T07:03:49.957Z,17.08
2019-05-29T07:06:38.636Z,17.04
2019-05-29T07:07:44.510Z,17.03
2019-05-29T07:09:10.429Z,17.03
2019-05-29T07:10:55.066Z,17.05
2019-05-29T07:12:19.461Z,17.05
2019-05-29T07:13:25.268Z,17.08
2019-05-29T07:14:30.263Z,17.08
2019-05-29T07:15:54.964Z,17.07
2019-05-29T07:16:59.958Z,17.06
2019-05-29T07:19:18.361Z,17.04
2019-05-29T07:20:50.317Z,17.01
2019-05-29T07:21:55.254Z,16.95
2019-05-29T07:23:01.255Z,16.90
2019-05-29T07:24:06.328Z,16.89
2019-05-29T07:25:31.046Z,16.91
2019-05-29T07:28:00.852Z,16.92
2019-05-29T07:29:08.485Z,16.89
2019-05-29T07:31:01.168Z,16.83
2019-05-29T07:32:18.263Z,16.77
2019-05-29T07:35:01.636Z,16.57
2019-05-29T07:36:14.365Z,16.50
2019-05-29T07:37:39.536Z,16.46
2019-05-29T07:39:44.038Z,16.45
2019-05-29T07:40:50.127Z,16.45
2019-05-29T07:42:15.686Z,16.46
2019-05-29T07:43:20.602Z,16.47
2019-05-29T07:44:26.182Z,16.48
2019-05-29T07:45:50.258Z,16.48
2019-05-29T07:46:55.656Z,16.45
2019-05-29T07:49:38.587Z,16.46
2019-05-29T07:51:10.523Z,16.44
2019-05-29T07:52:24.110Z,16.45
2019-05-29T07:53:48.828Z,16.49
2019-05-29T07:55:54.179Z,16.52
2019-05-29T07:57:18.474Z,16.53
2019-05-29T07:58:23.751Z,16.55
2019-05-29T08:01:11.547Z,16.59
2019-05-29T08:02:45.355Z,16.60
2019-05-29T08:04:11.569Z,16.61
2019-05-29T08:05:56.174Z,16.59
2019-05-29T08:07:20.319Z,16.60
2019-05-29T08:08:25.834Z,16.60
2019-05-29T08:09:50.007Z,16.60
2019-05-29T08:11:14.736Z,16.61
2019-05-29T08:14:02.918Z,16.68
2019-05-29T08:15:57.574Z,16.69
2019-05-29T08:17:32.889Z,16.71
2019-05-29T08:20:20.858Z,16.72
2019-05-29T08:21:44.877Z,16.74
2019-05-29T08:22:50.547Z,16.73
2019-05-29T08:24:16.494Z,16.71
2019-05-29T08:25:21.563Z,16.72
2019-05-29T08:26:27.102Z,16.73
2019-05-29T08:27:32.074Z,16.75
2019-05-29T08:28:38.107Z,16.77
2019-05-29T08:30:02.630Z,16.80
2019-05-29T08:31:27.595Z,16.81
2019-05-29T08:32:32.715Z,16.81
2019-05-29T08:33:57.477Z,16.81
2019-05-29T08:35:21.779Z,16.85
2019-05-29T08:37:01.135Z,16.87
2019-05-29T08:38:30.988Z,16.92
2019-05-29T08:39:37.183Z,16.95
2019-05-29T08:41:05.802Z,16.98
2019-05-29T08:42:29.655Z,16.99
2019-05-29T08:43:34.695Z,17.00
2019-05-29T08:49:25.064Z,16.99
2019-05-29T08:50:30.017Z,17.01
2019-05-29T08:51:35.586Z,17.02
2019-05-29T08:52:41.697Z,17.04
2019-05-29T08:54:23.014Z,17.06
2019-05-29T08:55:52.747Z,17.05
2019-05-29T08:58:44.317Z,17.01
2019-05-29T09:00:53.207Z,17.00
2019-05-29T09:02:15.409Z,17.03
2019-05-29T09:03:40.106Z,17.03
2019-05-29T09:05:04.336Z,17.02
2019-05-29T09:06:13.491Z,17.01
2019-05-29T09:07:55.327Z,17.04
2019-05-29T09:09:00.270Z,17.07
2019-05-29T09:11:56.703Z,17.14
2019-05-29T09:13:05.090Z,17.19
2019-05-29T09:14:47.472Z,17.21
2019-05-29T09:15:53.159Z,17.24
2019-05-29T09:17:18.406Z,17.24
2019-05-29T09:21:01.694Z,17.27
2019-05-29T09:22:13.855Z,17.29
2019-05-29T09:23:39.417Z,17.30
2019-05-29T09:24:44.394Z,17.30
2019-05-29T09:26:15.686Z,17.32
2019-05-29T09:27:35.129Z,17.34
2019-05-29T09:30:44.398Z,17.32
2019-05-29T09:33:53.063Z,17.31
2019-05-29T09:35:18.455Z,17.32
2019-05-29T09:36:43.860Z,17.32
2019-05-29T09:38:07.988Z,17.35
2019-05-29T09:39:14.967Z,17.37
2019-05-29T09:40:58.815Z,17.39
2019-05-29T09:42:23.725Z,17.42
2019-05-29T09:43:58.852Z,17.43
2019-05-29T09:45:16.629Z,17.45
2019-05-29T09:47:01.347Z,17.45
2019-05-29T09:48:28.326Z,17.50
2019-05-29T09:49:52.176Z,17.55
2019-05-29T09:50:57.711Z,17.60
2019-05-29T09:52:04.062Z,17.63
2019-05-29T09:53:48.153Z,17.67
2019-05-29T09:54:54.627Z,17.70
2019-05-29T09:56:19.737Z,17.75
2019-05-29T09:57:43.908Z,17.79
2019-05-29T09:58:49.409Z,17.82
2019-05-29T10:00:13.668Z,17.84
2019-05-29T10:01:38.886Z,17.86
2019-05-29T10:03:44.135Z,17.88
2019-05-29T10:05:49.730Z,17.89
2019-05-29T10:06:55.969Z,17.88
2019-05-29T10:08:39.965Z,17.90
2019-05-29T10:09:44.918Z,17.89
2019-05-29T10:11:10.978Z,17.89
2019-05-29T10:12:55.360Z,17.90
2019-05-29T10:14:21.123Z,17.93
2019-05-29T10:15:26.439Z,18.00
2019-05-29T10:16:32.017Z,18.04
2019-05-29T10:17:56.995Z,18.08
2019-05-29T10:19:22.110Z,18.12
2019-05-29T10:21:06.964Z,18.17
2019-05-29T10:22:31.012Z,18.18
2019-05-29T10:23:35.997Z,18.20
2019-05-29T10:24:41.615Z,18.23
2019-05-29T10:26:06.545Z,18.25
2019-05-29T10:29:21.475Z,18.31
2019-05-29T10:31:06.229Z,18.31
2019-05-29T10:32:32.230Z,18.30
2019-05-29T10:33:56.939Z,18.25
2019-05-29T10:35:02.249Z,18.23
2019-05-29T10:36:49.997Z,18.23
2019-05-29T10:38:12.925Z,18.22
2019-05-29T10:39:18.561Z,18.22
2019-05-29T10:40:23.707Z,18.24
2019-05-29T10:41:29.209Z,18.26
2019-05-29T10:42:53.667Z,18.29
2019-05-29T10:44:17.690Z,18.31
2019-05-29T10:46:02.283Z,18.31
2019-05-29T10:47:26.705Z,18.34
2019-05-29T10:48:32.288Z,18.37
2019-05-29T10:49:37.396Z,18.40
2019-05-29T10:51:02.170Z,18.42
2019-05-29T10:52:26.196Z,18.45
2019-05-29T10:53:31.205Z,18.48
2019-05-29T10:54:39.206Z,18.50
2019-05-29T10:56:03.358Z,18.51
2019-05-29T10:57:28.106Z,18.55
2019-05-29T10:58:58.967Z,18.55
2019-05-29T11:00:57.977Z,18.56
2019-05-29T11:02:03.378Z,18.57
2019-05-29T11:03:28.348Z,18.58
2019-05-29T11:04:33.725Z,18.61
2019-05-29T11:05:39.593Z,18.63
2019-05-29T11:06:46.087Z,18.65
2019-05-29T11:08:29.904Z,18.67
2019-05-29T11:09:44.639Z,18.71
2019-05-29T11:11:01.674Z,18.76
2019-05-29T11:12:46.487Z,18.79
2019-05-29T11:13:52.749Z,18.82
2019-05-29T11:17:21.281Z,18.82
2019-05-29T11:18:47.407Z,18.86
2019-05-29T11:24:10.530Z,18.95
2019-05-29T11:27:45.648Z,18.98
2019-05-29T11:30:55.593Z,19.05
2019-05-29T11:32:20.628Z,19.08
2019-05-29T11:33:26.172Z,19.10
2019-05-29T11:34:31.138Z,19.12
2019-05-29T11:36:07.327Z,19.13
2019-05-29T11:37:41.348Z,19.12
2019-05-29T11:39:06.281Z,19.14
2019-05-29T11:41:05.203Z,19.16
2019-05-29T11:42:35.824Z,19.16
2019-05-29T11:45:51.109Z,19.17
2019-05-29T11:47:34.907Z,19.18
2019-05-29T11:50:50.589Z,19.23
2019-05-29T11:53:20.381Z,19.30
2019-05-29T11:54:25.334Z,19.31
2019-05-29T11:55:31.138Z,19.34
2019-05-29T11:56:57.432Z,19.36
2019-05-29T11:58:31.122Z,19.39
2019-05-29T12:00:18.923Z,19.39
2019-05-29T12:01:49.745Z,19.38
2019-05-29T12:03:01.796Z,19.41
2019-05-29T12:04:28.376Z,19.41
2019-05-29T12:05:33.608Z,19.43
2019-05-29T12:06:59.492Z,19.42
2019-05-29T12:08:24.711Z,19.40
2019-05-29T12:09:33.446Z,19.36
2019-05-29T12:11:15.513Z,19.35
2019-05-29T12:12:39.513Z,19.36
2019-05-29T12:13:47.047Z,19.39
2019-05-29T12:16:41.606Z,19.44
2019-05-29T12:18:23.170Z,19.45
2019-05-29T12:19:31.954Z,19.47
2019-05-29T12:20:37.635Z,19.49
2019-05-29T12:23:45.149Z,19.53
2019-05-29T12:24:52.388Z,19.53
2019-05-29T12:26:36.045Z,19.53
2019-05-29T12:27:41.001Z,19.52
2019-05-29T12:29:11.451Z,19.52
2019-05-29T12:31:10.959Z,19.53
2019-05-29T12:32:35.154Z,19.59
2019-05-29T12:33:41.054Z,19.62
2019-05-29T12:34:53.461Z,19.66
2019-05-29T12:36:31.288Z,19.68
2019-05-29T12:39:19.553Z,19.74
2019-05-29T12:40:25.257Z,19.76
2019-05-29T12:41:30.210Z,19.80
2019-05-29T12:42:55.636Z,19.79
2019-05-29T12:44:40.114Z,19.80
2019-05-29T12:46:05.023Z,19.77
2019-05-29T12:47:31.664Z,19.75
2019-05-29T12:48:37.178Z,19.73
2019-05-29T12:49:42.648Z,19.72
2019-05-29T12:51:07.395Z,19.72
2019-05-29T12:52:31.520Z,19.74
2019-05-29T12:53:37.058Z,19.78
2019-05-29T12:55:21.644Z,19.79
2019-05-29T12:56:26.591Z,19.82
2019-05-29T12:57:50.843Z,19.84
2019-05-29T12:58:58.368Z,19.86
2019-05-29T13:02:33.680Z,19.90
2019-05-29T13:03:58.635Z,19.91
2019-05-29T13:06:04.459Z,19.96
2019-05-29T13:07:48.699Z,20.02
2019-05-29T13:09:12.816Z,20.05
2019-05-29T13:10:37.957Z,20.04
2019-05-29T13:11:42.910Z,20.03
2019-05-29T13:14:12.594Z,19.98
2019-05-29T13:15:58.660Z,19.96
2019-05-29T13:17:42.817Z,19.96
2019-05-29T13:18:48.418Z,20.00
2019-05-29T13:19:57.612Z,20.06
2019-05-29T13:21:38.941Z,20.09
2019-05-29T13:23:05.451Z,20.12
2019-05-29T13:24:29.794Z,20.13
2019-05-29T13:25:35.461Z,20.16
2019-05-29T13:26:40.466Z,20.18
2019-05-29T13:28:05.912Z,20.18
2019-05-29T13:29:49.499Z,20.19
2019-05-29T13:31:13.522Z,20.22
2019-05-29T13:32:18.457Z,20.23
2019-05-29T13:33:24.172Z,20.25
2019-05-29T13:34:29.194Z,20.26
2019-05-29T13:35:35.061Z,20.26
2019-05-29T13:37:03.427Z,20.28
2019-05-29T13:38:44.678Z,20.26
2019-05-29T13:40:09.719Z,20.22
2019-05-29T13:41:14.660Z,20.20
2019-05-29T13:43:05.333Z,20.18
2019-05-29T13:44:25.948Z,20.18
2019-05-29T13:45:49.968Z,20.19
2019-05-29T13:46:54.898Z,20.20
2019-05-29T13:48:18.900Z,20.25
2019-05-29T13:49:23.982Z,20.31
2019-05-29T13:50:29.477Z,20.38
2019-05-29T13:53:23.668Z,20.47
2019-05-29T13:54:28.652Z,20.50
2019-05-29T13:55:53.366Z,20.54
2019-05-29T13:56:59.597Z,20.56
2019-05-29T13:58:25.030Z,20.62
2019-05-29T13:59:49.359Z,20.69
2019-05-29T14:00:54.992Z,20.75
2019-05-29T14:02:19.273Z,20.81
2019-05-29T14:03:43.765Z,20.85
2019-05-29T14:05:08.807Z,20.93
2019-05-29T14:06:53.776Z,20.99
2019-05-29T14:08:00.633Z,21.03
2019-05-29T14:10:07.765Z,21.04
2019-05-29T14:13:42.991Z,20.98
2019-05-29T14:15:27.801Z,20.89
2019-05-29T14:18:23.985Z,20.76
2019-05-29T14:23:23.201Z,20.72
2019-05-29T14:24:47.290Z,20.74
2019-05-29T14:25:52.447Z,20.77
2019-05-29T14:26:58.098Z,20.76
2019-05-29T14:28:22.193Z,20.74
2019-05-29T14:29:27.232Z,20.74
2019-05-29T14:30:51.970Z,20.75
2019-05-29T14:32:16.112Z,20.73
2019-05-29T14:33:40.147Z,20.71
2019-05-29T14:36:28.613Z,20.68
2019-05-29T14:37:53.896Z,20.69
2019-05-29T14:39:18.056Z,20.68
2019-05-29T14:40:23.641Z,20.69
2019-05-29T14:41:29.108Z,20.71
2019-05-29T14:42:35.045Z,20.71
2019-05-29T14:43:59.171Z,20.71
2019-05-29T14:45:23.390Z,20.71
2019-05-29T14:46:28.966Z,20.71
2019-05-29T14:47:53.203Z,20.69
2019-05-29T14:48:58.774Z,20.67
2019-05-29T14:53:37.492Z,20.64
2019-05-29T14:54:43.133Z,20.61
2019-05-29T14:55:48.107Z,20.59
2019-05-29T14:56:53.960Z,20.57
2019-05-29T14:58:38.753Z,20.55
2019-05-29T14:59:44.323Z,20.52
2019-05-29T15:00:49.999Z,20.50
2019-05-29T15:02:21.618Z,20.47
2019-05-29T15:03:40.896Z,20.46
2019-05-29T15:04:45.820Z,20.45
2019-05-29T15:05:51.859Z,20.45
2019-05-29T15:06:56.845Z,20.45
2019-05-29T15:08:04.131Z,20.48
2019-05-29T15:09:28.273Z,20.50
2019-05-29T15:10:53.103Z,20.51
2019-05-29T15:13:29.041Z,20.55
2019-05-29T15:14:53.155Z,20.59
2019-05-29T15:16:17.205Z,20.60
2019-05-29T15:17:22.611Z,20.64
2019-05-29T15:18:28.848Z,20.65
2019-05-29T15:19:52.921Z,20.68
2019-05-29T15:20:58.554Z,20.72
2019-05-29T15:23:48.174Z,20.87
2019-05-29T15:25:03.231Z,20.96
2019-05-29T15:26:39.094Z,20.99
2019-05-29T15:28:03.203Z,21.03
2019-05-29T15:29:27.485Z,21.08
2019-05-29T15:30:52.327Z,21.12
2019-05-29T15:31:57.538Z,21.15
2019-05-29T15:33:03.098Z,21.16
2019-05-29T15:34:08.231Z,21.16
2019-05-29T15:37:18.866Z,21.17
2019-05-29T15:39:03.035Z,21.16
2019-05-29T15:40:47.982Z,21.14
2019-05-29T15:41:53.088Z,21.11
2019-05-29T15:43:17.454Z,21.08
2019-05-29T15:44:41.688Z,21.08
2019-05-29T15:45:47.358Z,21.07
2019-05-29T15:47:12.922Z,21.05
2019-05-29T15:51:02.379Z,21.03
2019-05-29T15:53:57.693Z,20.98
2019-05-29T15:55:32.117Z,20.97
2019-05-29T15:58:37.265Z,20.93
2019-05-29T16:00:02.494Z,20.93
2019-05-29T16:01:07.757Z,20.93
2019-05-29T16:02:13.745Z,20.91
2019-05-29T16:08:37.829Z,20.87
2019-05-29T16:10:01.993Z,20.87
2019-05-29T16:11:08.579Z,20.89
2019-05-29T16:12:53.298Z,20.89
2019-05-29T16:16:02.011Z,20.90
2019-05-29T16:17:26.209Z,20.89
2019-05-29T16:18:31.778Z,20.87
2019-05-29T16:19:36.753Z,20.88
2019-05-29T16:21:01.893Z,20.88
2019-05-29T16:22:06.973Z,20.88
2019-05-29T16:23:13.959Z,20.89
2019-05-29T16:28:24.096Z,20.83
2019-05-29T16:29:49.009Z,20.84
2019-05-29T16:31:13.006Z,20.85
2019-05-29T16:32:18.029Z,20.85
2019-05-29T16:33:42.129Z,20.85
2019-05-29T16:34:47.268Z,20.86
2019-05-29T16:35:52.925Z,20.86
2019-05-29T16:36:57.939Z,20.86
2019-05-29T16:38:03.491Z,20.86
2019-05-29T16:39:27.898Z,20.86
2019-05-29T16:40:52.961Z,20.84
2019-05-29T16:41:57.974Z,20.83
2019-05-29T16:43:23.118Z,20.83
2019-05-29T16:46:15.442Z,20.79
2019-05-29T16:47:56.411Z,20.78
2019-05-29T16:49:01.658Z,20.77
2019-05-29T16:51:51.395Z,20.77
2019-05-29T16:53:16.772Z,20.77
2019-05-29T16:55:01.652Z,20.77
2019-05-29T16:56:06.676Z,20.77
2019-05-29T16:57:12.964Z,20.76
2019-05-29T16:58:57.601Z,20.76
2019-05-29T17:00:03.241Z,20.76
2019-05-29T17:01:08.213Z,20.74
2019-05-29T17:02:32.932Z,20.72
2019-05-29T17:05:02.481Z,20.71
2019-05-29T17:06:07.829Z,20.72
2019-05-29T17:07:14.115Z,20.73
2019-05-29T17:08:39.665Z,20.74
2019-05-29T17:10:04.375Z,20.73
2019-05-29T17:12:52.991Z,20.71
2019-05-29T17:13:58.557Z,20.69
2019-05-29T17:15:22.941Z,20.67
2019-05-29T17:17:08.092Z,20.65
2019-05-29T17:18:32.473Z,20.64
2019-05-29T17:19:37.490Z,20.62
2019-05-29T17:21:22.896Z,20.60
2019-05-29T17:24:14.627Z,20.61
2019-05-29T17:26:19.158Z,20.62
2019-05-29T17:27:43.303Z,20.61
2019-05-29T17:28:48.835Z,20.61
2019-05-29T17:29:53.856Z,20.61
2019-05-29T17:31:18.933Z,20.61
2019-05-29T17:32:43.999Z,20.61
2019-05-29T17:33:49.601Z,20.60
2019-05-29T17:35:14.682Z,20.59
2019-05-29T17:36:58.899Z,20.59
2019-05-29T17:40:13.479Z,20.57
2019-05-29T17:41:38.541Z,20.57
2019-05-29T17:42:43.488Z,20.57
2019-05-29T17:43:49.137Z,20.57
2019-05-29T17:44:54.055Z,20.57
2019-05-29T17:45:59.692Z,20.56
2019-05-29T17:47:04.730Z,20.57
2019-05-29T17:48:10.383Z,20.56
2019-05-29T17:49:15.710Z,20.58
2019-05-29T17:50:23.124Z,20.56
2019-05-29T17:51:28.215Z,20.56
2019-05-29T17:52:33.758Z,20.56
2019-05-29T17:53:38.800Z,20.57
2019-05-29T17:54:44.689Z,20.56
2019-05-29T17:55:49.724Z,20.55
2019-05-29T17:56:55.529Z,20.54
2019-05-29T17:58:00.531Z,20.54
2019-05-29T17:59:06.357Z,20.52
2019-05-29T18:00:12.327Z,20.51
2019-05-29T18:01:18.279Z,20.50
2019-05-29T18:02:24.598Z,20.51
2019-05-29T18:03:30.191Z,20.51
2019-05-29T18:04:35.734Z,20.51
2019-05-29T18:05:41.759Z,20.52
2019-05-29T18:06:46.623Z,20.54
2019-05-29T18:07:52.284Z,20.53
2019-05-29T18:08:57.309Z,20.53
2019-05-29T18:10:03.169Z,20.53
2019-05-29T18:11:08.220Z,20.52
2019-05-29T18:12:13.792Z,20.51
2019-05-29T18:13:19.055Z,20.50
2019-05-29T18:14:25.348Z,20.49
2019-05-29T18:15:30.451Z,20.49
2019-05-29T18:16:36.046Z,20.48
2019-05-29T18:17:44.178Z,20.48
2019-05-29T18:18:48.320Z,20.47
2019-05-29T18:19:53.254Z,20.46
2019-05-29T18:20:58.786Z,20.46
2019-05-29T18:22:03.800Z,20.45
2019-05-29T18:23:09.374Z,20.45
2019-05-29T18:24:14.403Z,20.44
2019-05-29T18:25:21.909Z,20.45
2019-05-29T18:26:42.634Z,20.44
2019-05-29T18:27:34.153Z,20.45
2019-05-29T18:28:39.058Z,20.43
2019-05-29T18:29:44.737Z,20.43
2019-05-29T18:30:50.231Z,20.43
2019-05-29T18:31:55.796Z,20.42
2019-05-29T18:33:00.735Z,20.41
2019-05-29T18:34:06.393Z,20.39
2019-05-29T18:35:11.562Z,20.38
2019-05-29T18:36:17.117Z,20.39
2019-05-29T18:37:22.103Z,20.37
2019-05-29T18:38:28.767Z,20.36
2019-05-29T18:39:34.188Z,20.34
2019-05-29T18:40:39.784Z,20.34
2019-05-29T18:41:44.727Z,20.32
2019-05-29T18:42:50.244Z,20.32
2019-05-29T18:43:55.369Z,20.31
2019-05-29T18:45:01.257Z,20.32
2019-05-29T18:46:06.293Z,20.33
2019-05-29T18:47:11.871Z,20.34
2019-05-29T18:48:16.814Z,20.35
2019-05-29T18:49:22.489Z,20.36
2019-05-29T18:50:27.766Z,20.38
2019-05-29T18:51:33.598Z,20.39
2019-05-29T18:52:38.605Z,20.39
2019-05-29T18:53:44.610Z,20.41
2019-05-29T18:54:49.890Z,20.41
2019-05-29T18:55:55.730Z,20.43
2019-05-29T18:57:14.690Z,20.45
2019-05-29T18:58:08.449Z,20.45
2019-05-29T18:59:13.572Z,20.46
2019-05-29T19:00:19.435Z,20.47
2019-05-29T19:01:25.457Z,20.46
2019-05-29T19:02:31.626Z,20.46
2019-05-29T19:03:40.284Z,20.46
2019-05-29T19:04:44.145Z,20.46
2019-05-29T19:05:49.180Z,20.46
2019-05-29T19:06:54.726Z,20.47
2019-05-29T19:07:59.664Z,20.45
2019-05-29T19:09:07.527Z,20.46
2019-05-29T19:10:13.138Z,20.46
2019-05-29T19:11:18.842Z,20.44
2019-05-29T19:12:23.798Z,20.41
2019-05-29T19:13:29.967Z,20.38
2019-05-29T19:14:34.907Z,20.37
2019-05-29T19:15:40.571Z,20.34
2019-05-29T19:16:45.586Z,20.31
2019-05-29T19:17:51.188Z,20.26
2019-05-29T19:18:56.131Z,20.24
2019-05-29T19:20:01.634Z,20.20
2019-05-29T19:21:06.729Z,20.17
2019-05-29T19:22:12.303Z,20.14
2019-05-29T19:23:17.306Z,20.11
2019-05-29T19:24:22.820Z,20.08
2019-05-29T19:25:29.033Z,20.06
2019-05-29T19:26:36.770Z,20.04
2019-05-29T19:27:42.272Z,20.02
2019-05-29T19:28:48.175Z,20.01
2019-05-29T19:29:53.365Z,19.99
2019-05-29T19:30:58.977Z,19.99
2019-05-29T19:32:04.049Z,19.99
2019-05-29T19:33:09.552Z,19.98
2019-05-29T19:34:14.584Z,19.97
2019-05-29T19:35:20.655Z,19.98
2019-05-29T19:36:25.675Z,19.97
2019-05-29T19:37:32.101Z,19.97
2019-05-29T19:38:37.100Z,19.96
2019-05-29T19:39:42.962Z,19.94
2019-05-29T19:40:48.220Z,19.95